sensor_id;sensor_type;location;lat;lon;timestamp;P1;durP1;ratioP1;P2;durP2;ratioP2
3811;SDS011;1921;49.368;11.068;2023-04-24T00:00:15;50.70;;;45.80;;
3811;SDS011;1921;49.368;11.068;2023-04-24T00:02:42;50.37;;;45.50;;
3811;SDS011;1921;49.368;11.068;2023-04-24T00:05:16;50.70;;;45.83;;
3811;SDS011;1921;49.368;11.068;2023-04-24T00:07:43;51.20;;;46.20;;
3811;SDS011;1921;49.368;11.068;2023-04-24T00:10:10;49.60;;;45.00;;
3811;SDS011;1921;49.368;11.068;2023-04-24T00:12:37;50.60;;;45.80;;
3811;SDS011;1921;49.368;11.068;2023-04-24T00:15:03;51.30;;;46.30;;
3811;SDS011;1921;49.368;11.068;2023-04-24T00:17:30;50.20;;;45.50;;
3811;SDS011;1921;49.368;11.068;2023-04-24T00:19:56;51.77;;;46.20;;
3811;SDS011;1921;49.368;11.068;2023-04-24T00:22:30;50.13;;;45.43;;
3811;SDS011;1921;49.368;11.068;2023-04-24T00:24:56;50.60;;;45.70;;
3811;SDS011;1921;49.368;11.068;2023-04-24T00:27:22;51.47;;;46.43;;
3811;SDS011;1921;49.368;11.068;2023-04-24T00:29:48;50.67;;;45.67;;
3811;SDS011;1921;49.368;11.068;2023-04-24T00:32:14;50.47;;;45.57;;
3811;SDS011;1921;49.368;11.068;2023-04-24T00:34:40;49.67;;;45.07;;
3811;SDS011;1921;49.368;11.068;2023-04-24T00:37:06;50.97;;;46.07;;
3811;SDS011;1921;49.368;11.068;2023-04-24T00:39:32;51.53;;;46.33;;
3811;SDS011;1921;49.368;11.068;2023-04-24T00:41:58;50.27;;;45.60;;
3811;SDS011;1921;49.368;11.068;2023-04-24T00:44:24;50.67;;;45.57;;
3811;SDS011;1921;49.368;11.068;2023-04-24T00:46:50;50.77;;;45.67;;
3811;SDS011;1921;49.368;11.068;2023-04-24T00:49:19;50.47;;;45.67;;
3811;SDS011;1921;49.368;11.068;2023-04-24T00:51:48;50.33;;;45.63;;
3811;SDS011;1921;49.368;11.068;2023-04-24T00:54:16;50.73;;;45.50;;
3811;SDS011;1921;49.368;11.068;2023-04-24T00:56:43;50.53;;;45.83;;
3811;SDS011;1921;49.368;11.068;2023-04-24T00:59:10;50.03;;;45.37;;
3811;SDS011;1921;49.368;11.068;2023-04-24T01:01:38;51.10;;;45.87;;
3811;SDS011;1921;49.368;11.068;2023-04-24T01:04:07;51.23;;;46.23;;
3811;SDS011;1921;49.368;11.068;2023-04-24T01:06:34;50.87;;;45.90;;
3811;SDS011;1921;49.368;11.068;2023-04-24T01:09:03;50.40;;;45.50;;
3811;SDS011;1921;49.368;11.068;2023-04-24T01:11:29;50.87;;;45.97;;
3811;SDS011;1921;49.368;11.068;2023-04-24T01:13:56;50.80;;;45.90;;
3811;SDS011;1921;49.368;11.068;2023-04-24T01:16:22;50.50;;;45.60;;
3811;SDS011;1921;49.368;11.068;2023-04-24T01:18:48;50.37;;;45.57;;
3811;SDS011;1921;49.368;11.068;2023-04-24T01:21:14;49.80;;;45.10;;
3811;SDS011;1921;49.368;11.068;2023-04-24T01:23:45;50.30;;;45.40;;
3811;SDS011;1921;49.368;11.068;2023-04-24T01:26:11;49.77;;;45.10;;
3811;SDS011;1921;49.368;11.068;2023-04-24T01:28:39;50.33;;;45.43;;
3811;SDS011;1921;49.368;11.068;2023-04-24T01:31:05;51.47;;;46.27;;
3811;SDS011;1921;49.368;11.068;2023-04-24T01:33:31;50.70;;;45.77;;
3811;SDS011;1921;49.368;11.068;2023-04-24T01:35:57;50.77;;;45.73;;
3811;SDS011;1921;49.368;11.068;2023-04-24T01:38:23;50.13;;;45.43;;
3811;SDS011;1921;49.368;11.068;2023-04-24T01:40:49;50.60;;;45.80;;
3811;SDS011;1921;49.368;11.068;2023-04-24T01:43:16;50.70;;;45.90;;
3811;SDS011;1921;49.368;11.068;2023-04-24T01:45:42;50.60;;;45.80;;
3811;SDS011;1921;49.368;11.068;2023-04-24T01:48:08;50.40;;;45.60;;
3811;SDS011;1921;49.368;11.068;2023-04-24T01:50:36;50.73;;;45.83;;
3811;SDS011;1921;49.368;11.068;2023-04-24T01:53:01;49.90;;;45.20;;
3811;SDS011;1921;49.368;11.068;2023-04-24T01:55:27;50.80;;;46.00;;
3811;SDS011;1921;49.368;11.068;2023-04-24T01:57:53;51.40;;;45.80;;
3811;SDS011;1921;49.368;11.068;2023-04-24T02:00:22;49.97;;;45.27;;
3811;SDS011;1921;49.368;11.068;2023-04-24T02:02:49;50.43;;;45.67;;
3811;SDS011;1921;49.368;11.068;2023-04-24T02:05:15;50.30;;;45.40;;
3811;SDS011;1921;49.368;11.068;2023-04-24T02:07:41;50.30;;;45.50;;
3811;SDS011;1921;49.368;11.068;2023-04-24T02:10:07;50.47;;;45.67;;
3811;SDS011;1921;49.368;11.068;2023-04-24T02:12:33;51.53;;;46.40;;
3811;SDS011;1921;49.368;11.068;2023-04-24T02:14:59;49.83;;;45.17;;
3811;SDS011;1921;49.368;11.068;2023-04-24T02:17:25;50.43;;;45.53;;
3811;SDS011;1921;49.368;11.068;2023-04-24T02:19:51;51.37;;;45.87;;
3811;SDS011;1921;49.368;11.068;2023-04-24T02:22:17;50.20;;;45.40;;
3811;SDS011;1921;49.368;11.068;2023-04-24T02:24:42;50.17;;;45.27;;
3811;SDS011;1921;49.368;11.068;2023-04-24T02:27:08;49.53;;;44.90;;
3811;SDS011;1921;49.368;11.068;2023-04-24T02:29:35;50.47;;;45.77;;
3811;SDS011;1921;49.368;11.068;2023-04-24T02:32:00;50.37;;;45.40;;
3811;SDS011;1921;49.368;11.068;2023-04-24T02:34:26;50.73;;;45.77;;
3811;SDS011;1921;49.368;11.068;2023-04-24T02:36:52;50.70;;;45.90;;
3811;SDS011;1921;49.368;11.068;2023-04-24T02:39:19;50.23;;;45.23;;
3811;SDS011;1921;49.368;11.068;2023-04-24T02:41:45;50.87;;;46.07;;
3811;SDS011;1921;49.368;11.068;2023-04-24T02:44:11;49.93;;;45.30;;
3811;SDS011;1921;49.368;11.068;2023-04-24T02:46:36;50.50;;;45.70;;
3811;SDS011;1921;49.368;11.068;2023-04-24T02:49:03;50.50;;;45.80;;
3811;SDS011;1921;49.368;11.068;2023-04-24T02:51:29;50.80;;;45.90;;
3811;SDS011;1921;49.368;11.068;2023-04-24T02:53:55;50.83;;;45.83;;
3811;SDS011;1921;49.368;11.068;2023-04-24T02:56:21;50.70;;;45.70;;
3811;SDS011;1921;49.368;11.068;2023-04-24T02:58:46;50.73;;;45.93;;
3811;SDS011;1921;49.368;11.068;2023-04-24T03:01:12;50.37;;;45.53;;
3811;SDS011;1921;49.368;11.068;2023-04-24T03:03:38;50.33;;;45.63;;
3811;SDS011;1921;49.368;11.068;2023-04-24T03:06:05;50.40;;;45.50;;
3811;SDS011;1921;49.368;11.068;2023-04-24T03:08:32;51.00;;;45.90;;
3811;SDS011;1921;49.368;11.068;2023-04-24T03:10:59;51.33;;;46.33;;
3811;SDS011;1921;49.368;11.068;2023-04-24T03:13:25;51.23;;;46.23;;
3811;SDS011;1921;49.368;11.068;2023-04-24T03:15:50;50.90;;;46.10;;
3811;SDS011;1921;49.368;11.068;2023-04-24T03:18:16;51.80;;;46.90;;
3811;SDS011;1921;49.368;11.068;2023-04-24T03:20:42;51.43;;;46.47;;
3811;SDS011;1921;49.368;11.068;2023-04-24T03:23:11;51.33;;;46.43;;
3811;SDS011;1921;49.368;11.068;2023-04-24T03:25:37;52.10;;;46.67;;
3811;SDS011;1921;49.368;11.068;2023-04-24T03:28:03;51.97;;;47.00;;
3811;SDS011;1921;49.368;11.068;2023-04-24T03:30:28;52.67;;;47.23;;
3811;SDS011;1921;49.368;11.068;2023-04-24T03:32:54;51.50;;;46.40;;
3811;SDS011;1921;49.368;11.068;2023-04-24T03:35:20;51.40;;;46.40;;
3811;SDS011;1921;49.368;11.068;2023-04-24T03:37:47;52.17;;;46.97;;
3811;SDS011;1921;49.368;11.068;2023-04-24T03:40:12;51.30;;;46.40;;
3811;SDS011;1921;49.368;11.068;2023-04-24T03:42:38;52.03;;;47.03;;
3811;SDS011;1921;49.368;11.068;2023-04-24T03:45:04;50.77;;;45.37;;
3811;SDS011;1921;49.368;11.068;2023-04-24T03:47:31;51.40;;;46.43;;
3811;SDS011;1921;49.368;11.068;2023-04-24T03:49:57;50.80;;;45.90;;
3811;SDS011;1921;49.368;11.068;2023-04-24T03:52:23;50.77;;;45.87;;
3811;SDS011;1921;49.368;11.068;2023-04-24T03:54:48;51.00;;;46.00;;
3811;SDS011;1921;49.368;11.068;2023-04-24T03:57:14;51.00;;;46.10;;
3811;SDS011;1921;49.368;11.068;2023-04-24T03:59:40;50.90;;;45.90;;
3811;SDS011;1921;49.368;11.068;2023-04-24T04:02:06;49.93;;;45.33;;
3811;SDS011;1921;49.368;11.068;2023-04-24T04:04:32;51.07;;;46.17;;
3811;SDS011;1921;49.368;11.068;2023-04-24T04:06:58;51.20;;;46.33;;
3811;SDS011;1921;49.368;11.068;2023-04-24T04:09:26;50.70;;;45.80;;
3811;SDS011;1921;49.368;11.068;2023-04-24T04:11:52;51.13;;;46.20;;
3811;SDS011;1921;49.368;11.068;2023-04-24T04:14:18;51.57;;;46.57;;
3811;SDS011;1921;49.368;11.068;2023-04-24T04:16:44;50.67;;;45.87;;
3811;SDS011;1921;49.368;11.068;2023-04-24T04:19:10;52.20;;;46.87;;
3811;SDS011;1921;49.368;11.068;2023-04-24T04:21:36;51.27;;;46.17;;
3811;SDS011;1921;49.368;11.068;2023-04-24T04:24:01;51.30;;;46.30;;
3811;SDS011;1921;49.368;11.068;2023-04-24T04:26:27;51.40;;;46.50;;
3811;SDS011;1921;49.368;11.068;2023-04-24T04:28:53;51.40;;;46.53;;
3811;SDS011;1921;49.368;11.068;2023-04-24T04:31:22;51.50;;;46.30;;
3811;SDS011;1921;49.368;11.068;2023-04-24T04:33:48;52.10;;;47.10;;
3811;SDS011;1921;49.368;11.068;2023-04-24T04:36:14;53.70;;;48.10;;
3811;SDS011;1921;49.368;11.068;2023-04-24T04:38:40;52.57;;;47.37;;
3811;SDS011;1921;49.368;11.068;2023-04-24T04:41:07;51.07;;;45.60;;
3811;SDS011;1921;49.368;11.068;2023-04-24T04:43:33;52.37;;;46.90;;
3811;SDS011;1921;49.368;11.068;2023-04-24T04:45:59;52.47;;;47.17;;
3811;SDS011;1921;49.368;11.068;2023-04-24T04:48:26;56.40;;;49.03;;
3811;SDS011;1921;49.368;11.068;2023-04-24T04:50:52;53.73;;;48.40;;
3811;SDS011;1921;49.368;11.068;2023-04-24T04:53:18;52.13;;;47.13;;
3811;SDS011;1921;49.368;11.068;2023-04-24T04:55:43;53.20;;;47.47;;
3811;SDS011;1921;49.368;11.068;2023-04-24T04:58:10;53.90;;;48.40;;
3811;SDS011;1921;49.368;11.068;2023-04-24T05:00:36;53.03;;;47.87;;
3811;SDS011;1921;49.368;11.068;2023-04-24T05:03:02;52.77;;;47.57;;
3811;SDS011;1921;49.368;11.068;2023-04-24T05:05:28;52.97;;;47.70;;
3811;SDS011;1921;49.368;11.068;2023-04-24T05:07:54;54.13;;;48.30;;
3811;SDS011;1921;49.368;11.068;2023-04-24T05:10:20;53.07;;;47.77;;
3811;SDS011;1921;49.368;11.068;2023-04-24T05:12:46;53.10;;;47.70;;
3811;SDS011;1921;49.368;11.068;2023-04-24T05:15:12;53.53;;;48.10;;
3811;SDS011;1921;49.368;11.068;2023-04-24T05:17:37;53.97;;;48.27;;
3811;SDS011;1921;49.368;11.068;2023-04-24T05:20:04;53.87;;;48.47;;
3811;SDS011;1921;49.368;11.068;2023-04-24T05:22:32;52.83;;;47.53;;
3811;SDS011;1921;49.368;11.068;2023-04-24T05:24:57;53.37;;;47.93;;
3811;SDS011;1921;49.368;11.068;2023-04-24T05:27:24;53.97;;;48.23;;
3811;SDS011;1921;49.368;11.068;2023-04-24T05:29:50;53.60;;;47.80;;
3811;SDS011;1921;49.368;11.068;2023-04-24T05:32:16;54.07;;;48.57;;
3811;SDS011;1921;49.368;11.068;2023-04-24T05:34:41;54.37;;;48.63;;
3811;SDS011;1921;49.368;11.068;2023-04-24T05:37:07;53.23;;;47.93;;
3811;SDS011;1921;49.368;11.068;2023-04-24T05:39:34;53.30;;;48.00;;
3811;SDS011;1921;49.368;11.068;2023-04-24T05:42:01;52.73;;;47.23;;
3811;SDS011;1921;49.368;11.068;2023-04-24T05:44:28;53.20;;;47.87;;
3811;SDS011;1921;49.368;11.068;2023-04-24T05:46:54;53.13;;;47.67;;
3811;SDS011;1921;49.368;11.068;2023-04-24T05:49:20;54.43;;;48.83;;
3811;SDS011;1921;49.368;11.068;2023-04-24T05:51:46;53.53;;;48.03;;
3811;SDS011;1921;49.368;11.068;2023-04-24T05:54:12;53.57;;;48.07;;
3811;SDS011;1921;49.368;11.068;2023-04-24T05:56:38;53.90;;;48.40;;
3811;SDS011;1921;49.368;11.068;2023-04-24T05:59:04;53.63;;;47.97;;
3811;SDS011;1921;49.368;11.068;2023-04-24T06:01:30;54.10;;;48.20;;
3811;SDS011;1921;49.368;11.068;2023-04-24T06:03:56;53.30;;;47.90;;
3811;SDS011;1921;49.368;11.068;2023-04-24T06:06:23;53.80;;;48.40;;
3811;SDS011;1921;49.368;11.068;2023-04-24T06:08:49;52.80;;;47.40;;
3811;SDS011;1921;49.368;11.068;2023-04-24T06:11:15;53.60;;;48.10;;
3811;SDS011;1921;49.368;11.068;2023-04-24T06:13:41;53.17;;;47.67;;
3811;SDS011;1921;49.368;11.068;2023-04-24T06:16:06;52.97;;;47.50;;
3811;SDS011;1921;49.368;11.068;2023-04-24T06:18:33;52.77;;;47.37;;
3811;SDS011;1921;49.368;11.068;2023-04-24T06:20:58;53.80;;;47.83;;
3811;SDS011;1921;49.368;11.068;2023-04-24T06:23:24;52.60;;;47.20;;
3811;SDS011;1921;49.368;11.068;2023-04-24T06:25:50;56.03;;;47.30;;
3811;SDS011;1921;49.368;11.068;2023-04-24T06:28:16;52.47;;;47.07;;
3811;SDS011;1921;49.368;11.068;2023-04-24T06:30:42;52.17;;;46.90;;
3811;SDS011;1921;49.368;11.068;2023-04-24T06:33:08;53.10;;;47.70;;
3811;SDS011;1921;49.368;11.068;2023-04-24T06:35:35;52.10;;;46.83;;
3811;SDS011;1921;49.368;11.068;2023-04-24T06:38:02;51.70;;;46.50;;
3811;SDS011;1921;49.368;11.068;2023-04-24T06:40:28;53.10;;;47.60;;
3811;SDS011;1921;49.368;11.068;2023-04-24T06:42:54;52.00;;;46.60;;
3811;SDS011;1921;49.368;11.068;2023-04-24T06:45:20;51.40;;;46.20;;
3811;SDS011;1921;49.368;11.068;2023-04-24T06:47:46;53.23;;;46.00;;
3811;SDS011;1921;49.368;11.068;2023-04-24T06:50:12;50.87;;;45.77;;
3811;SDS011;1921;49.368;11.068;2023-04-24T06:52:38;51.00;;;45.80;;
3811;SDS011;1921;49.368;11.068;2023-04-24T06:55:05;50.70;;;45.63;;
3811;SDS011;1921;49.368;11.068;2023-04-24T06:57:32;50.87;;;45.77;;
3811;SDS011;1921;49.368;11.068;2023-04-24T06:59:58;50.70;;;45.50;;
3811;SDS011;1921;49.368;11.068;2023-04-24T07:02:24;50.57;;;45.37;;
3811;SDS011;1921;49.368;11.068;2023-04-24T07:04:50;50.97;;;45.77;;
3811;SDS011;1921;49.368;11.068;2023-04-24T07:07:16;50.67;;;45.67;;
3811;SDS011;1921;49.368;11.068;2023-04-24T07:09:41;50.50;;;45.30;;
3811;SDS011;1921;49.368;11.068;2023-04-24T07:12:08;50.87;;;45.77;;
3811;SDS011;1921;49.368;11.068;2023-04-24T07:14:35;50.70;;;45.50;;
3811;SDS011;1921;49.368;11.068;2023-04-24T07:17:05;50.63;;;45.60;;
3811;SDS011;1921;49.368;11.068;2023-04-24T07:19:31;50.50;;;45.50;;
3811;SDS011;1921;49.368;11.068;2023-04-24T07:22:01;50.57;;;45.57;;
3811;SDS011;1921;49.368;11.068;2023-04-24T07:24:28;50.80;;;45.70;;
3811;SDS011;1921;49.368;11.068;2023-04-24T07:26:54;50.53;;;45.53;;
3811;SDS011;1921;49.368;11.068;2023-04-24T07:29:20;50.83;;;45.80;;
3811;SDS011;1921;49.368;11.068;2023-04-24T07:31:46;50.67;;;45.67;;
3811;SDS011;1921;49.368;11.068;2023-04-24T07:34:12;50.80;;;45.70;;
3811;SDS011;1921;49.368;11.068;2023-04-24T07:36:38;50.87;;;45.77;;
3811;SDS011;1921;49.368;11.068;2023-04-24T07:39:04;50.70;;;45.60;;
3811;SDS011;1921;49.368;11.068;2023-04-24T07:41:31;51.00;;;45.90;;
3811;SDS011;1921;49.368;11.068;2023-04-24T07:43:56;51.00;;;45.90;;
3811;SDS011;1921;49.368;11.068;2023-04-24T07:46:24;50.80;;;45.60;;
3811;SDS011;1921;49.368;11.068;2023-04-24T07:48:50;50.70;;;45.70;;
3811;SDS011;1921;49.368;11.068;2023-04-24T07:51:16;51.50;;;46.30;;
3811;SDS011;1921;49.368;11.068;2023-04-24T07:53:42;51.63;;;46.33;;
3811;SDS011;1921;49.368;11.068;2023-04-24T07:56:08;51.40;;;46.30;;
3811;SDS011;1921;49.368;11.068;2023-04-24T07:58:34;50.70;;;45.60;;
3811;SDS011;1921;49.368;11.068;2023-04-24T08:01:00;51.53;;;46.23;;
3811;SDS011;1921;49.368;11.068;2023-04-24T08:03:26;51.00;;;45.90;;
3811;SDS011;1921;49.368;11.068;2023-04-24T08:05:52;51.57;;;46.37;;
3811;SDS011;1921;49.368;11.068;2023-04-24T08:08:20;52.00;;;46.70;;
3811;SDS011;1921;49.368;11.068;2023-04-24T08:10:47;52.50;;;46.90;;
3811;SDS011;1921;49.368;11.068;2023-04-24T08:13:13;52.70;;;47.10;;
3811;SDS011;1921;49.368;11.068;2023-04-24T08:15:39;51.90;;;46.60;;
3811;SDS011;1921;49.368;11.068;2023-04-24T08:18:05;52.20;;;46.80;;
3811;SDS011;1921;49.368;11.068;2023-04-24T08:20:31;52.63;;;47.23;;
3811;SDS011;1921;49.368;11.068;2023-04-24T08:22:56;53.03;;;47.43;;
3811;SDS011;1921;49.368;11.068;2023-04-24T08:25:22;52.43;;;47.03;;
3811;SDS011;1921;49.368;11.068;2023-04-24T08:27:49;51.50;;;46.13;;
3811;SDS011;1921;49.368;11.068;2023-04-24T08:30:15;53.00;;;47.60;;
3811;SDS011;1921;49.368;11.068;2023-04-24T08:32:42;52.73;;;47.23;;
3811;SDS011;1921;49.368;11.068;2023-04-24T08:35:08;52.80;;;47.30;;
3811;SDS011;1921;49.368;11.068;2023-04-24T08:37:35;51.83;;;46.53;;
3811;SDS011;1921;49.368;11.068;2023-04-24T08:40:02;52.20;;;46.90;;
3811;SDS011;1921;49.368;11.068;2023-04-24T08:42:37;52.83;;;47.33;;
3811;SDS011;1921;49.368;11.068;2023-04-24T08:45:03;53.20;;;47.60;;
3811;SDS011;1921;49.368;11.068;2023-04-24T08:47:30;52.97;;;47.50;;
3811;SDS011;1921;49.368;11.068;2023-04-24T08:49:57;53.47;;;47.77;;
3811;SDS011;1921;49.368;11.068;2023-04-24T08:52:25;53.53;;;47.83;;
3811;SDS011;1921;49.368;11.068;2023-04-24T08:54:51;53.67;;;48.07;;
3811;SDS011;1921;49.368;11.068;2023-04-24T08:57:18;53.90;;;48.10;;
3811;SDS011;1921;49.368;11.068;2023-04-24T08:59:44;53.53;;;47.83;;
3811;SDS011;1921;49.368;11.068;2023-04-24T09:02:11;54.00;;;48.30;;
3811;SDS011;1921;49.368;11.068;2023-04-24T09:04:40;52.90;;;47.27;;
3811;SDS011;1921;49.368;11.068;2023-04-24T09:07:07;53.30;;;47.70;;
3811;SDS011;1921;49.368;11.068;2023-04-24T09:09:34;52.80;;;47.30;;
3811;SDS011;1921;49.368;11.068;2023-04-24T09:12:00;52.93;;;47.40;;
3811;SDS011;1921;49.368;11.068;2023-04-24T09:14:28;53.20;;;47.60;;
3811;SDS011;1921;49.368;11.068;2023-04-24T09:16:56;52.63;;;47.23;;
3811;SDS011;1921;49.368;11.068;2023-04-24T09:19:22;52.60;;;47.20;;
3811;SDS011;1921;49.368;11.068;2023-04-24T09:21:47;53.33;;;47.63;;
3811;SDS011;1921;49.368;11.068;2023-04-24T09:24:17;53.27;;;47.67;;
3811;SDS011;1921;49.368;11.068;2023-04-24T09:26:47;53.37;;;47.67;;
3811;SDS011;1921;49.368;11.068;2023-04-24T09:29:15;56.10;;;48.07;;
3811;SDS011;1921;49.368;11.068;2023-04-24T09:31:42;53.40;;;47.80;;
3811;SDS011;1921;49.368;11.068;2023-04-24T09:34:08;53.70;;;48.10;;
3811;SDS011;1921;49.368;11.068;2023-04-24T09:36:38;52.47;;;47.00;;
3811;SDS011;1921;49.368;11.068;2023-04-24T09:39:08;52.50;;;47.00;;
3811;SDS011;1921;49.368;11.068;2023-04-24T09:41:57;52.93;;;47.33;;
3811;SDS011;1921;49.368;11.068;2023-04-24T09:44:23;52.90;;;47.30;;
3811;SDS011;1921;49.368;11.068;2023-04-24T09:46:56;53.30;;;47.60;;
3811;SDS011;1921;49.368;11.068;2023-04-24T09:49:32;53.70;;;48.00;;
3811;SDS011;1921;49.368;11.068;2023-04-24T09:52:07;53.80;;;48.10;;
3811;SDS011;1921;49.368;11.068;2023-04-24T09:54:35;54.50;;;48.20;;
3811;SDS011;1921;49.368;11.068;2023-04-24T09:57:02;54.60;;;48.50;;
3811;SDS011;1921;49.368;11.068;2023-04-24T09:59:28;53.70;;;48.00;;
3811;SDS011;1921;49.368;11.068;2023-04-24T10:01:55;54.20;;;48.30;;
3811;SDS011;1921;49.368;11.068;2023-04-24T10:04:23;53.20;;;47.60;;
3811;SDS011;1921;49.368;11.068;2023-04-24T10:06:53;53.20;;;47.50;;
3811;SDS011;1921;49.368;11.068;2023-04-24T10:09:21;53.00;;;47.50;;
3811;SDS011;1921;49.368;11.068;2023-04-24T10:11:51;52.73;;;47.33;;
3811;SDS011;1921;49.368;11.068;2023-04-24T10:14:19;52.93;;;47.43;;
3811;SDS011;1921;49.368;11.068;2023-04-24T10:16:54;52.70;;;47.20;;
3811;SDS011;1921;49.368;11.068;2023-04-24T10:19:48;52.40;;;46.80;;
3811;SDS011;1921;49.368;11.068;2023-04-24T10:22:14;52.40;;;46.97;;
3811;SDS011;1921;49.368;11.068;2023-04-24T10:24:41;52.73;;;47.30;;
3811;SDS011;1921;49.368;11.068;2023-04-24T10:27:09;52.30;;;46.90;;
3811;SDS011;1921;49.368;11.068;2023-04-24T10:29:35;52.67;;;47.17;;
3811;SDS011;1921;49.368;11.068;2023-04-24T10:32:03;53.07;;;47.40;;
3811;SDS011;1921;49.368;11.068;2023-04-24T10:34:32;53.30;;;47.60;;
3811;SDS011;1921;49.368;11.068;2023-04-24T10:36:58;53.43;;;47.73;;
3811;SDS011;1921;49.368;11.068;2023-04-24T10:39:23;53.17;;;47.57;;
3811;SDS011;1921;49.368;11.068;2023-04-24T10:41:50;52.40;;;47.00;;
3811;SDS011;1921;49.368;11.068;2023-04-24T10:44:17;52.53;;;46.90;;
3811;SDS011;1921;49.368;11.068;2023-04-24T10:46:47;52.60;;;47.10;;
3811;SDS011;1921;49.368;11.068;2023-04-24T10:49:29;51.60;;;46.30;;
3811;SDS011;1921;49.368;11.068;2023-04-24T10:52:00;52.13;;;46.73;;
3811;SDS011;1921;49.368;11.068;2023-04-24T10:59:49;52.73;;;47.30;;
3811;SDS011;1921;49.368;11.068;2023-04-24T11:02:37;52.80;;;47.27;;
3811;SDS011;1921;49.368;11.068;2023-04-24T11:05:08;53.30;;;47.80;;
3811;SDS011;1921;49.368;11.068;2023-04-24T11:10:44;58.70;;;46.20;;
3811;SDS011;1921;49.368;11.068;2023-04-24T11:13:15;52.00;;;46.70;;
3811;SDS011;1921;49.368;11.068;2023-04-24T11:15:42;51.90;;;46.70;;
3811;SDS011;1921;49.368;11.068;2023-04-24T11:18:14;51.70;;;46.50;;
3811;SDS011;1921;49.368;11.068;2023-04-24T11:20:44;51.50;;;46.30;;
3811;SDS011;1921;49.368;11.068;2023-04-24T11:23:12;51.83;;;46.40;;
3811;SDS011;1921;49.368;11.068;2023-04-24T11:25:38;51.13;;;46.00;;
3811;SDS011;1921;49.368;11.068;2023-04-24T11:28:05;51.43;;;46.23;;
3811;SDS011;1921;49.368;11.068;2023-04-24T11:30:33;51.47;;;46.27;;
3811;SDS011;1921;49.368;11.068;2023-04-24T11:33:03;52.20;;;46.80;;
3811;SDS011;1921;49.368;11.068;2023-04-24T11:35:30;52.17;;;46.77;;
3811;SDS011;1921;49.368;11.068;2023-04-24T11:38:04;52.70;;;47.20;;
3811;SDS011;1921;49.368;11.068;2023-04-24T11:40:30;53.20;;;47.50;;
3811;SDS011;1921;49.368;11.068;2023-04-24T11:42:56;53.57;;;47.87;;
3811;SDS011;1921;49.368;11.068;2023-04-24T11:45:25;53.40;;;47.80;;
3811;SDS011;1921;49.368;11.068;2023-04-24T11:47:55;53.27;;;47.57;;
3811;SDS011;1921;49.368;11.068;2023-04-24T11:50:22;52.83;;;47.33;;
3811;SDS011;1921;49.368;11.068;2023-04-24T11:52:54;52.87;;;47.27;;
3811;SDS011;1921;49.368;11.068;2023-04-24T11:57:48;53.00;;;47.50;;
3811;SDS011;1921;49.368;11.068;2023-04-24T12:00:21;52.30;;;46.90;;
3811;SDS011;1921;49.368;11.068;2023-04-24T12:05:47;51.80;;;46.50;;
3811;SDS011;1921;49.368;11.068;2023-04-24T12:08:26;52.40;;;47.10;;
3811;SDS011;1921;49.368;11.068;2023-04-24T12:10:53;52.07;;;46.70;;
3811;SDS011;1921;49.368;11.068;2023-04-24T12:13:19;53.03;;;47.50;;
3811;SDS011;1921;49.368;11.068;2023-04-24T12:15:45;52.63;;;47.13;;
3811;SDS011;1921;49.368;11.068;2023-04-24T12:18:14;53.13;;;47.53;;
3811;SDS011;1921;49.368;11.068;2023-04-24T12:20:41;52.37;;;46.90;;
3811;SDS011;1921;49.368;11.068;2023-04-24T12:23:07;53.07;;;47.50;;
3811;SDS011;1921;49.368;11.068;2023-04-24T12:25:33;54.00;;;48.30;;
3811;SDS011;1921;49.368;11.068;2023-04-24T12:30:28;53.37;;;47.77;;
3811;SDS011;1921;49.368;11.068;2023-04-24T12:32:59;53.83;;;47.97;;
3811;SDS011;1921;49.368;11.068;2023-04-24T12:35:27;52.43;;;46.93;;
3811;SDS011;1921;49.368;11.068;2023-04-24T12:38:11;53.20;;;47.50;;
3811;SDS011;1921;49.368;11.068;2023-04-24T12:40:39;52.20;;;46.80;;
3811;SDS011;1921;49.368;11.068;2023-04-24T12:43:13;52.03;;;46.73;;
3811;SDS011;1921;49.368;11.068;2023-04-24T12:45:45;52.40;;;47.00;;
3811;SDS011;1921;49.368;11.068;2023-04-24T12:48:12;52.97;;;47.50;;
3811;SDS011;1921;49.368;11.068;2023-04-24T12:50:42;52.03;;;46.63;;
3811;SDS011;1921;49.368;11.068;2023-04-24T12:53:08;52.70;;;47.30;;
3811;SDS011;1921;49.368;11.068;2023-04-24T12:55:34;52.60;;;47.20;;
3811;SDS011;1921;49.368;11.068;2023-04-24T12:58:00;52.57;;;47.13;;
3811;SDS011;1921;49.368;11.068;2023-04-24T13:00:27;53.10;;;47.50;;
3811;SDS011;1921;49.368;11.068;2023-04-24T13:02:53;53.10;;;47.50;;
3811;SDS011;1921;49.368;11.068;2023-04-24T13:05:19;53.50;;;47.90;;
3811;SDS011;1921;49.368;11.068;2023-04-24T13:07:45;52.80;;;47.30;;
3811;SDS011;1921;49.368;11.068;2023-04-24T13:10:11;53.77;;;48.07;;
3811;SDS011;1921;49.368;11.068;2023-04-24T13:12:39;53.73;;;48.03;;
3811;SDS011;1921;49.368;11.068;2023-04-24T13:15:05;54.00;;;48.20;;
3811;SDS011;1921;49.368;11.068;2023-04-24T13:17:32;54.70;;;48.70;;
3811;SDS011;1921;49.368;11.068;2023-04-24T13:19:58;53.80;;;48.00;;
3811;SDS011;1921;49.368;11.068;2023-04-24T13:22:24;54.23;;;48.53;;
3811;SDS011;1921;49.368;11.068;2023-04-24T13:24:50;53.90;;;48.20;;
3811;SDS011;1921;49.368;11.068;2023-04-24T13:27:16;54.30;;;48.50;;
3811;SDS011;1921;49.368;11.068;2023-04-24T13:29:42;53.63;;;48.03;;
3811;SDS011;1921;49.368;11.068;2023-04-24T13:32:09;53.67;;;48.07;;
3811;SDS011;1921;49.368;11.068;2023-04-24T13:34:35;52.57;;;47.17;;
3811;SDS011;1921;49.368;11.068;2023-04-24T13:37:01;52.57;;;47.17;;
3811;SDS011;1921;49.368;11.068;2023-04-24T13:39:28;52.40;;;47.00;;
3811;SDS011;1921;49.368;11.068;2023-04-24T13:41:54;52.93;;;47.43;;
3811;SDS011;1921;49.368;11.068;2023-04-24T13:44:21;53.53;;;48.00;;
3811;SDS011;1921;49.368;11.068;2023-04-24T13:46:48;53.93;;;48.30;;
3811;SDS011;1921;49.368;11.068;2023-04-24T13:49:21;53.40;;;47.80;;
3811;SDS011;1921;49.368;11.068;2023-04-24T13:51:47;52.93;;;47.40;;
3811;SDS011;1921;49.368;11.068;2023-04-24T13:54:13;53.80;;;48.20;;
3811;SDS011;1921;49.368;11.068;2023-04-24T13:56:39;53.33;;;47.83;;
3811;SDS011;1921;49.368;11.068;2023-04-24T13:59:05;52.80;;;47.20;;
3811;SDS011;1921;49.368;11.068;2023-04-24T14:01:31;53.00;;;47.60;;
3811;SDS011;1921;49.368;11.068;2023-04-24T14:03:57;53.50;;;47.90;;
3811;SDS011;1921;49.368;11.068;2023-04-24T14:06:23;52.90;;;47.27;;
3811;SDS011;1921;49.368;11.068;2023-04-24T14:08:49;53.27;;;47.87;;
3811;SDS011;1921;49.368;11.068;2023-04-24T14:11:15;55.80;;;49.80;;
3811;SDS011;1921;49.368;11.068;2023-04-24T14:13:42;54.60;;;48.27;;
3811;SDS011;1921;49.368;11.068;2023-04-24T14:16:09;54.27;;;48.47;;
3811;SDS011;1921;49.368;11.068;2023-04-24T14:18:35;54.80;;;48.80;;
3811;SDS011;1921;49.368;11.068;2023-04-24T14:21:03;55.23;;;48.50;;
3811;SDS011;1921;49.368;11.068;2023-04-24T14:23:29;55.07;;;49.07;;
3811;SDS011;1921;49.368;11.068;2023-04-24T14:25:56;54.90;;;48.90;;
3811;SDS011;1921;49.368;11.068;2023-04-24T14:28:22;54.40;;;48.50;;
3811;SDS011;1921;49.368;11.068;2023-04-24T14:30:49;54.53;;;48.63;;
3811;SDS011;1921;49.368;11.068;2023-04-24T14:33:15;53.73;;;48.03;;
3811;SDS011;1921;49.368;11.068;2023-04-24T14:35:41;53.97;;;48.17;;
3811;SDS011;1921;49.368;11.068;2023-04-24T14:38:07;53.97;;;48.27;;
3811;SDS011;1921;49.368;11.068;2023-04-24T14:40:35;56.40;;;48.77;;
3811;SDS011;1921;49.368;11.068;2023-04-24T14:43:01;53.10;;;47.60;;
3811;SDS011;1921;49.368;11.068;2023-04-24T14:45:27;53.57;;;47.97;;
3811;SDS011;1921;49.368;11.068;2023-04-24T14:47:53;53.17;;;47.67;;